createdAt,value
2023-01-17T00:00:28.882Z,97604.10
2023-01-17T00:03:19.704Z,97600.89
2023-01-17T00:06:10.186Z,97601.60
2023-01-17T00:09:18.475Z,97600.11
2023-01-17T00:11:48.939Z,97603.48
2023-01-17T00:14:21.698Z,97602.23
2023-01-17T00:16:55.523Z,97606.78
2023-01-17T00:19:46.090Z,97613.93
2023-01-17T00:22:55.407Z,97612.42
2023-01-17T00:26:04.548Z,97614.55
2023-01-17T00:28:46.324Z,97618.11
2023-01-17T00:31:17.039Z,97619.14
2023-01-17T00:33:46.860Z,97630.38
2023-01-17T00:36:19.373Z,97633.59
2023-01-17T00:38:51.468Z,97638.33
2023-01-17T00:41:25.957Z,97642.67
2023-01-17T00:44:34.312Z,97644.45
2023-01-17T00:47:42.785Z,97653.91
2023-01-17T00:50:34.109Z,97661.43
2023-01-17T00:53:32.378Z,97669.44
2023-01-17T00:56:21.998Z,97676.70
2023-01-17T00:59:15.878Z,97678.83
2023-01-17T01:02:07.050Z,97678.50
2023-01-17T01:05:02.481Z,97683.34
2023-01-17T01:07:59.257Z,97691.77
2023-01-17T01:10:56.922Z,97694.00
2023-01-17T01:13:56.881Z,97695.77
2023-01-17T01:16:45.253Z,97698.84
2023-01-17T01:19:41.265Z,97707.72
2023-01-17T01:22:34.693Z,97710.94
2023-01-17T01:25:32.341Z,97715.98
2023-01-17T01:28:29.190Z,97722.55
2023-01-17T01:31:37.705Z,97728.36
2023-01-17T01:34:17.251Z,97725.15
2023-01-17T01:36:58.080Z,97730.91
2023-01-17T01:39:31.114Z,97733.44
2023-01-17T01:42:01.719Z,97736.77
2023-01-17T01:44:47.835Z,97741.98
2023-01-17T01:47:28.114Z,97743.48
2023-01-17T01:50:21.712Z,97749.98
2023-01-17T01:53:03.144Z,97756.27
2023-01-17T01:55:45.494Z,97762.54
2023-01-17T01:58:26.091Z,97765.60
2023-01-17T02:01:18.142Z,97765.37
2023-01-17T02:03:50.349Z,97763.35
2023-01-17T02:06:30.599Z,97760.70
2023-01-17T02:09:16.469Z,97756.16
2023-01-17T02:12:08.380Z,97759.27
2023-01-17T02:14:59.591Z,97762.30
2023-01-17T02:17:44.041Z,97760.85
2023-01-17T02:21:10.159Z,97754.76
2023-01-17T02:24:24.810Z,97752.44
2023-01-17T02:27:08.591Z,97754.55
2023-01-17T02:30:14.811Z,97757.22
2023-01-17T02:33:16.437Z,97758.63
2023-01-17T02:35:55.865Z,97759.13
2023-01-17T02:38:53.452Z,97759.83
2023-01-17T02:41:47.156Z,97764.88
2023-01-17T02:44:27.794Z,97759.17
2023-01-17T02:47:01.007Z,97757.27
2023-01-17T02:49:52.531Z,97759.10
2023-01-17T02:52:57.619Z,97756.48
2023-01-17T02:55:44.537Z,97751.92
2023-01-17T02:58:50.241Z,97750.67
2023-01-17T03:01:36.494Z,97754.96
2023-01-17T03:04:14.492Z,97761.06
2023-01-17T03:06:53.652Z,97761.86
2023-01-17T03:09:30.137Z,97767.69
2023-01-17T03:12:11.780Z,97768.89
2023-01-17T03:14:51.816Z,97772.02
2023-01-17T03:17:36.381Z,97779.34
2023-01-17T03:20:15.015Z,97779.79
2023-01-17T03:22:48.335Z,97781.91
2023-01-17T03:25:19.274Z,97785.02
2023-01-17T03:27:52.220Z,97787.92
2023-01-17T03:30:34.253Z,97787.80
2023-01-17T03:33:07.675Z,97790.13
2023-01-17T03:35:40.932Z,97786.30
2023-01-17T03:38:11.608Z,97788.88
2023-01-17T03:41:02.349Z,97796.77
2023-01-17T03:43:53.017Z,97796.95
2023-01-17T03:46:25.786Z,97792.50
2023-01-17T03:48:59.614Z,97803.53
2023-01-17T03:51:35.655Z,97804.60
2023-01-17T03:54:06.482Z,97808.17
2023-01-17T03:56:42.499Z,97818.27
2023-01-17T03:59:13.333Z,97821.00
2023-01-17T04:01:44.214Z,97811.81
2023-01-17T04:04:15.111Z,97805.41
2023-01-17T04:07:05.717Z,97802.34
2023-01-17T04:09:36.280Z,97812.44
2023-01-17T04:12:09.867Z,97811.23
2023-01-17T04:14:41.268Z,97818.21
2023-01-17T04:17:23.673Z,97816.45
2023-01-17T04:19:54.533Z,97812.80
2023-01-17T04:22:31.597Z,97810.98
2023-01-17T04:25:02.078Z,97810.16
2023-01-17T04:27:37.157Z,97812.56
2023-01-17T04:30:14.515Z,97811.61
2023-01-17T04:32:58.663Z,97817.44
2023-01-17T04:35:34.455Z,97815.41
2023-01-17T04:38:25.150Z,97820.48
2023-01-17T04:40:55.631Z,97823.13
2023-01-17T04:43:26.111Z,97825.10
2023-01-17T04:45:59.121Z,97830.13
2023-01-17T04:48:31.408Z,97830.65
2023-01-17T04:51:05.631Z,97829.02
2023-01-17T04:53:36.320Z,97835.16
2023-01-17T04:56:20.041Z,97827.39
2023-01-17T04:59:00.787Z,97823.38
2023-01-17T05:01:31.441Z,97817.45
2023-01-17T05:04:02.236Z,97810.64
2023-01-17T05:06:42.128Z,97805.80
2023-01-17T05:09:15.097Z,97805.79
2023-01-17T05:12:04.802Z,97806.19
2023-01-17T05:14:35.214Z,97811.63
2023-01-17T05:17:11.067Z,97813.79
2023-01-17T05:19:56.508Z,97814.52
2023-01-17T05:22:36.157Z,97817.77
2023-01-17T05:25:17.075Z,97822.77
2023-01-17T05:28:08.203Z,97824.02
2023-01-17T05:30:39.225Z,97825.31
2023-01-17T05:33:12.897Z,97823.04
2023-01-17T05:35:43.307Z,97817.27
2023-01-17T05:38:16.930Z,97819.75
2023-01-17T05:41:05.054Z,97819.85
2023-01-17T05:43:35.480Z,97826.31
2023-01-17T05:46:07.027Z,97829.45
2023-01-17T05:48:37.704Z,97825.52
2023-01-17T05:51:08.635Z,97826.22
2023-01-17T05:53:39.084Z,97826.83
2023-01-17T05:56:19.778Z,97827.46
2023-01-17T05:59:13.205Z,97826.52
2023-01-17T06:01:54.442Z,97826.16
2023-01-17T06:04:45.260Z,97817.95
2023-01-17T06:07:19.236Z,97815.35
2023-01-17T06:10:02.440Z,97812.98
2023-01-17T06:12:36.071Z,97813.44
2023-01-17T06:15:11.367Z,97807.85
2023-01-17T06:17:51.313Z,97800.36
2023-01-17T06:20:21.970Z,97802.14
2023-01-17T06:23:04.348Z,97798.35
2023-01-17T06:25:40.887Z,97794.04
2023-01-17T06:28:16.780Z,97788.27
2023-01-17T06:30:53.370Z,97785.45
2023-01-17T06:33:44.236Z,97785.21
2023-01-17T06:36:25.514Z,97785.08
2023-01-17T06:38:58.569Z,97786.13
2023-01-17T06:41:49.319Z,97796.01
2023-01-17T06:44:22.090Z,97798.67
2023-01-17T06:46:55.014Z,97800.44
2023-01-17T06:49:28.308Z,97802.91
2023-01-17T06:51:58.683Z,97798.43
2023-01-17T06:54:33.556Z,97800.96
2023-01-17T06:57:04.024Z,97801.44
2023-01-17T06:59:37.058Z,97798.08
2023-01-17T07:02:10.056Z,97795.42
2023-01-17T07:05:00.826Z,97794.47
2023-01-17T07:07:33.681Z,97791.02
2023-01-17T07:10:04.955Z,97789.20
2023-01-17T07:12:48.984Z,97789.73
2023-01-17T07:15:19.525Z,97788.98
2023-01-17T07:17:52.427Z,97786.55
2023-01-17T07:20:25.608Z,97789.54
2023-01-17T07:23:16.451Z,97787.80
2023-01-17T07:25:55.698Z,97785.59
2023-01-17T07:28:35.997Z,97784.44
2023-01-17T07:31:10.369Z,97784.94
2023-01-17T07:33:40.864Z,97781.70
2023-01-17T07:36:14.749Z,97782.30
2023-01-17T07:38:49.839Z,97779.05
2023-01-17T07:41:31.974Z,97775.16
2023-01-17T07:44:23.029Z,97771.38
2023-01-17T07:46:57.866Z,97769.66
2023-01-17T07:49:28.494Z,97766.31
2023-01-17T07:51:59.344Z,97769.86
2023-01-17T07:54:43.663Z,97764.15
2023-01-17T07:57:15.238Z,97759.38
2023-01-17T08:00:08.322Z,97752.60
2023-01-17T08:03:05.745Z,97754.06
2023-01-17T08:05:57.812Z,97753.55
2023-01-17T08:08:41.189Z,97754.24
2023-01-17T08:11:11.851Z,97751.67
2023-01-17T08:13:57.345Z,97749.50
2023-01-17T08:16:29.735Z,97749.85
2023-01-17T08:19:22.461Z,97752.32
2023-01-17T08:22:13.440Z,97750.38
2023-01-17T08:25:04.292Z,97750.77
2023-01-17T08:27:45.638Z,97749.60
2023-01-17T08:30:29.813Z,97746.56
2023-01-17T08:33:10.551Z,97747.42
2023-01-17T08:35:41.358Z,97746.40
2023-01-17T08:38:13.487Z,97739.13
2023-01-17T08:41:04.315Z,97741.88
2023-01-17T08:43:49.961Z,97742.00
2023-01-17T08:46:24.409Z,97742.91
2023-01-17T08:48:58.794Z,97743.42
2023-01-17T08:51:51.735Z,97742.20
2023-01-17T08:54:33.212Z,97741.09
2023-01-17T08:57:16.880Z,97742.94
2023-01-17T09:00:09.657Z,97745.35
2023-01-17T09:03:01.335Z,97749.44
2023-01-17T09:05:52.141Z,97749.77
2023-01-17T09:08:47.140Z,97748.22
2023-01-17T09:11:19.030Z,97747.70
2023-01-17T09:14:12.347Z,97752.25
2023-01-17T09:16:43.231Z,97755.41
2023-01-17T09:19:35.471Z,97757.50
2023-01-17T09:22:10.099Z,97761.02
2023-01-17T09:24:50.832Z,97760.95
2023-01-17T09:27:21.856Z,97760.05
2023-01-17T09:30:14.412Z,97756.25
2023-01-17T09:32:54.835Z,97756.20
2023-01-17T09:35:46.435Z,97751.75
2023-01-17T09:38:24.496Z,97758.14
2023-01-17T09:41:19.168Z,97755.76
2023-01-17T09:43:56.352Z,97758.91
2023-01-17T09:46:43.569Z,97756.13
2023-01-17T09:49:39.122Z,97763.56
2023-01-17T09:52:21.101Z,97769.27
2023-01-17T09:55:16.781Z,97774.02
2023-01-17T09:58:12.146Z,97773.96
2023-01-17T10:01:09.162Z,97772.91
2023-01-17T10:04:14.691Z,97772.08
2023-01-17T10:07:16.347Z,97764.91
2023-01-17T10:10:03.566Z,97763.47
2023-01-17T10:12:46.858Z,97760.70
2023-01-17T10:15:52.208Z,97753.81
2023-01-17T10:18:57.500Z,97754.78
2023-01-17T10:22:12.655Z,97761.12
2023-01-17T10:25:05.211Z,97762.29
2023-01-17T10:27:39.395Z,97754.52
2023-01-17T10:30:23.957Z,97755.28
2023-01-17T10:33:13.300Z,97759.21
2023-01-17T10:35:56.897Z,97760.48
2023-01-17T10:38:50.590Z,97759.63
2023-01-17T10:41:39.069Z,97757.09
2023-01-17T10:44:19.316Z,97755.88
2023-01-17T10:47:11.790Z,97755.31
2023-01-17T10:49:51.677Z,97753.99
2023-01-17T10:52:53.979Z,97750.24
2023-01-17T10:55:39.050Z,97747.70
2023-01-17T10:58:19.123Z,97744.55
2023-01-17T11:00:55.918Z,97740.46
2023-01-17T11:03:31.257Z,97740.18
2023-01-17T11:06:23.466Z,97732.96
2023-01-17T11:09:07.068Z,97721.85
2023-01-17T11:11:45.694Z,97716.57
2023-01-17T11:14:36.061Z,97716.84
2023-01-17T11:17:09.671Z,97714.38
2023-01-17T11:19:51.307Z,97719.15
2023-01-17T11:22:30.104Z,97711.00
2023-01-17T11:25:25.195Z,97707.25
2023-01-17T11:28:26.059Z,97698.33
2023-01-17T11:31:03.791Z,97696.27
2023-01-17T11:33:53.864Z,97690.92
2023-01-17T11:36:32.948Z,97686.70
2023-01-17T11:39:28.482Z,97681.08
2023-01-17T11:42:37.463Z,97677.77
2023-01-17T11:45:28.296Z,97673.48
2023-01-17T11:48:13.394Z,97669.14
2023-01-17T11:50:59.578Z,97667.80
2023-01-17T11:53:35.005Z,97664.92
2023-01-17T11:56:23.204Z,97659.82
2023-01-17T11:59:27.355Z,97653.96
2023-01-17T12:02:38.808Z,97647.36
2023-01-17T12:05:27.860Z,97645.81
2023-01-17T12:08:12.033Z,97631.75
2023-01-17T12:11:10.237Z,97628.08
2023-01-17T12:14:03.203Z,97623.46
2023-01-17T12:16:47.345Z,97620.70
2023-01-17T12:19:41.449Z,97616.14
2023-01-17T12:22:28.946Z,97605.31
2023-01-17T12:25:23.248Z,97604.10
2023-01-17T12:28:19.328Z,97606.01
2023-01-17T12:31:07.165Z,97601.45
2023-01-17T12:33:52.060Z,97597.50
2023-01-17T12:36:44.771Z,97592.66
2023-01-17T12:39:29.336Z,97595.27
2023-01-17T12:42:06.493Z,97589.72
2023-01-17T12:44:47.958Z,97588.23
2023-01-17T12:47:22.675Z,97581.35
2023-01-17T12:50:17.089Z,97575.25
2023-01-17T12:53:05.630Z,97566.74
2023-01-17T12:55:53.852Z,97559.23
2023-01-17T12:58:26.905Z,97555.75
2023-01-17T13:01:03.862Z,97553.65
2023-01-17T13:03:57.763Z,97557.00
2023-01-17T13:06:43.205Z,97553.42
2023-01-17T13:09:19.052Z,97551.65
2023-01-17T13:12:14.751Z,97552.80
2023-01-17T13:14:56.395Z,97551.29
2023-01-17T13:17:49.859Z,97543.08
2023-01-17T13:20:54.026Z,97541.56
2023-01-17T13:23:34.355Z,97539.72
2023-01-17T13:26:27.154Z,97525.94
2023-01-17T13:29:06.293Z,97517.36
2023-01-17T13:31:49.414Z,97512.33
2023-01-17T13:34:47.486Z,97507.81
2023-01-17T13:37:35.115Z,97501.35
2023-01-17T13:40:40.826Z,97495.63
2023-01-17T13:43:31.494Z,97492.96
2023-01-17T13:46:04.264Z,97494.52
2023-01-17T13:48:37.639Z,97487.31
2023-01-17T13:51:09.810Z,97481.73
2023-01-17T13:53:50.859Z,97487.96
2023-01-17T13:56:34.615Z,97498.99
2023-01-17T13:59:36.025Z,97493.92
2023-01-17T14:02:42.424Z,97495.25
2023-01-17T14:05:49.374Z,97498.60
2023-01-17T14:08:47.177Z,97493.15
2023-01-17T14:11:18.429Z,97495.75
2023-01-17T14:13:51.764Z,97501.39
2023-01-17T14:16:31.517Z,97503.02
2023-01-17T14:19:05.188Z,97505.84
2023-01-17T14:21:36.016Z,97512.46
2023-01-17T14:24:16.052Z,97513.84
2023-01-17T14:27:23.811Z,97515.14
2023-01-17T14:30:04.967Z,97516.65
2023-01-17T14:32:39.095Z,97524.02
2023-01-17T14:35:24.191Z,97523.02
2023-01-17T14:38:21.526Z,97522.26
2023-01-17T14:41:03.644Z,97522.67
2023-01-17T14:43:40.561Z,97525.00
2023-01-17T14:46:21.709Z,97520.83
2023-01-17T14:49:02.722Z,97523.77
2023-01-17T14:51:58.781Z,97523.81
2023-01-17T14:54:53.581Z,97525.45
2023-01-17T14:57:29.980Z,97529.81
2023-01-17T15:00:20.011Z,97527.19
2023-01-17T15:02:51.603Z,97529.30
2023-01-17T15:05:42.196Z,97532.20
2023-01-17T15:08:17.886Z,97535.95
2023-01-17T15:10:57.146Z,97538.65
2023-01-17T15:13:50.945Z,97549.96
2023-01-17T15:16:27.996Z,97551.41
2023-01-17T15:18:59.987Z,97551.45
2023-01-17T15:21:46.775Z,97551.71
2023-01-17T15:24:22.091Z,97550.73
2023-01-17T15:27:06.310Z,97547.27
2023-01-17T15:29:43.252Z,97546.73
2023-01-17T15:32:23.956Z,97544.56
2023-01-17T15:34:59.426Z,97547.52
2023-01-17T15:37:35.837Z,97549.55
2023-01-17T15:40:18.631Z,97550.55
2023-01-17T15:42:56.619Z,97548.73
2023-01-17T15:45:32.380Z,97550.70
2023-01-17T15:48:41.017Z,97551.81
2023-01-17T15:51:39.435Z,97553.14
2023-01-17T15:54:43.392Z,97555.23
2023-01-17T15:57:29.399Z,97551.08
2023-01-17T16:00:06.054Z,97541.27
2023-01-17T16:02:44.941Z,97541.52
2023-01-17T16:05:42.051Z,97537.69
2023-01-17T16:08:32.519Z,97536.54
2023-01-17T16:11:23.333Z,97531.55
2023-01-17T16:14:14.355Z,97527.30
2023-01-17T16:16:55.592Z,97525.42
2023-01-17T16:19:26.990Z,97523.17
2023-01-17T16:22:02.819Z,97527.41
2023-01-17T16:24:36.443Z,97529.56
2023-01-17T16:27:07.770Z,97528.61
2023-01-17T16:29:49.530Z,97536.23
2023-01-17T16:32:23.178Z,97533.61
2023-01-17T16:35:20.926Z,97536.79
2023-01-17T16:37:56.287Z,97533.16
2023-01-17T16:40:44.608Z,97532.84
2023-01-17T16:43:20.545Z,97535.85
2023-01-17T16:46:00.092Z,97542.10
2023-01-17T16:48:30.983Z,97544.89
2023-01-17T16:51:08.535Z,97544.81
2023-01-17T16:53:42.185Z,97546.73
2023-01-17T16:56:23.924Z,97543.61
2023-01-17T16:58:55.048Z,97544.61
2023-01-17T17:01:28.401Z,97546.23
2023-01-17T17:03:58.930Z,97545.48
2023-01-17T17:06:31.009Z,97543.84
2023-01-17T17:09:04.442Z,97544.80
2023-01-17T17:11:48.781Z,97539.48
2023-01-17T17:14:38.383Z,97538.45
2023-01-17T17:17:22.013Z,97547.61
2023-01-17T17:20:15.486Z,97552.02
2023-01-17T17:23:06.348Z,97548.12
2023-01-17T17:25:59.470Z,97543.27
2023-01-17T17:28:41.180Z,97542.56
2023-01-17T17:31:32.069Z,97538.59
2023-01-17T17:34:11.916Z,97537.13
2023-01-17T17:37:03.878Z,97536.52
2023-01-17T17:39:45.225Z,97538.23
2023-01-17T17:42:36.021Z,97539.80
2023-01-17T17:45:26.734Z,97544.02
2023-01-17T17:48:17.391Z,97544.27
2023-01-17T17:51:08.663Z,97549.55
2023-01-17T17:53:39.300Z,97555.30
2023-01-17T17:56:10.730Z,97557.14
2023-01-17T17:58:54.450Z,97561.17
2023-01-17T18:01:38.902Z,97563.35
2023-01-17T18:04:21.620Z,97565.66
2023-01-17T18:07:12.620Z,97574.86
2023-01-17T18:10:03.727Z,97575.44
2023-01-17T18:13:22.361Z,97576.88
2023-01-17T18:17:05.807Z,97578.52
2023-01-17T18:19:30.854Z,97583.67
2023-01-17T18:22:21.588Z,97583.15
2023-01-17T18:24:59.733Z,97586.11
2023-01-17T18:27:50.649Z,97585.59
2023-01-17T18:30:41.394Z,97583.49
2023-01-17T18:33:22.341Z,97581.05
2023-01-17T18:36:14.494Z,97581.73
2023-01-17T18:39:05.849Z,97588.64
2023-01-17T18:41:57.285Z,97587.71
2023-01-17T18:44:48.337Z,97583.15
2023-01-17T18:47:18.867Z,97591.17
2023-01-17T18:49:54.087Z,97596.27
2023-01-17T18:52:44.805Z,97598.63
2023-01-17T18:55:34.211Z,97600.63
2023-01-17T18:58:13.453Z,97599.36
2023-01-17T19:00:55.347Z,97595.64
2023-01-17T19:03:35.400Z,97595.92
2023-01-17T19:06:16.861Z,97599.23
2023-01-17T19:08:59.688Z,97603.54
2023-01-17T19:11:30.728Z,97604.94
2023-01-17T19:14:01.873Z,97610.38
2023-01-17T19:16:39.116Z,97612.90
2023-01-17T19:19:19.068Z,97615.46
2023-01-17T19:22:09.774Z,97619.30
2023-01-17T19:24:43.089Z,97625.89
2023-01-17T19:27:27.149Z,97631.83
2023-01-17T19:29:57.802Z,97633.15
2023-01-17T19:32:47.570Z,97636.36
2023-01-17T19:35:32.159Z,97633.88
2023-01-17T19:38:12.885Z,97636.86
2023-01-17T19:40:54.723Z,97641.91
2023-01-17T19:43:44.400Z,97640.92
2023-01-17T19:46:26.807Z,97642.63
2023-01-17T19:49:20.643Z,97644.09
2023-01-17T19:52:01.353Z,97640.52
2023-01-17T19:54:32.003Z,97641.64
2023-01-17T19:57:24.394Z,97640.98
2023-01-17T19:59:58.091Z,97639.54
2023-01-17T20:02:28.845Z,97636.58
2023-01-17T20:04:59.516Z,97631.58
2023-01-17T20:07:31.311Z,97632.94
2023-01-17T20:10:02.522Z,97631.65
2023-01-17T20:12:53.548Z,97633.59
2023-01-17T20:15:30.926Z,97634.48
2023-01-17T20:18:14.005Z,97636.98
2023-01-17T20:21:09.978Z,97636.79
2023-01-17T20:23:54.699Z,97639.70
2023-01-17T20:26:34.708Z,97635.46
2023-01-17T20:29:26.044Z,97640.83
2023-01-17T20:32:06.819Z,97642.65
2023-01-17T20:34:57.231Z,97643.83
2023-01-17T20:37:46.511Z,97645.67
2023-01-17T20:40:18.486Z,97644.91
2023-01-17T20:43:00.289Z,97650.05
2023-01-17T20:45:31.153Z,97651.91
2023-01-17T20:48:04.920Z,97654.05
2023-01-17T20:50:36.854Z,97656.16
2023-01-17T20:53:16.147Z,97659.76
2023-01-17T20:56:00.160Z,97659.36
2023-01-17T20:58:32.155Z,97654.98
2023-01-17T21:01:23.533Z,97657.08
2023-01-17T21:03:53.993Z,97660.40
2023-01-17T21:06:34.956Z,97662.70
2023-01-17T21:09:25.935Z,97666.06
2023-01-17T21:12:03.073Z,97660.57
2023-01-17T21:14:54.153Z,97660.64
2023-01-17T21:17:42.215Z,97665.76
2023-01-17T21:20:16.571Z,97665.89
2023-01-17T21:23:09.126Z,97666.38
2023-01-17T21:25:44.552Z,97664.95
2023-01-17T21:28:27.940Z,97663.78
2023-01-17T21:31:01.988Z,97668.10
2023-01-17T21:33:43.896Z,97669.25
2023-01-17T21:36:17.932Z,97669.14
2023-01-17T21:39:12.205Z,97665.92
2023-01-17T21:41:53.674Z,97666.94
2023-01-17T21:44:27.153Z,97669.96
2023-01-17T21:47:18.165Z,97669.11
2023-01-17T21:49:48.758Z,97669.15
2023-01-17T21:52:21.844Z,97672.92
2023-01-17T21:55:14.790Z,97673.01
2023-01-17T21:58:30.796Z,97673.89
2023-01-17T22:01:18.835Z,97677.30
2023-01-17T22:04:11.731Z,97679.71
2023-01-17T22:06:44.831Z,97678.73
2023-01-17T22:09:35.627Z,97677.34
2023-01-17T22:12:11.245Z,97682.30
2023-01-17T22:15:02.047Z,97683.06
2023-01-17T22:17:52.914Z,97678.69
2023-01-17T22:20:25.907Z,97681.34
2023-01-17T22:23:16.680Z,97680.46
2023-01-17T22:26:09.828Z,97683.65
2023-01-17T22:29:02.516Z,97680.19
2023-01-17T22:31:53.322Z,97683.00
2023-01-17T22:34:26.430Z,97682.58
2023-01-17T22:37:00.456Z,97679.58
2023-01-17T22:39:31.081Z,97678.98
2023-01-17T22:42:04.668Z,97680.95
2023-01-17T22:44:55.759Z,97680.75
2023-01-17T22:47:36.742Z,97676.17
2023-01-17T22:50:27.575Z,97677.92
2023-01-17T22:53:00.659Z,97677.24
2023-01-17T22:55:40.636Z,97673.95
2023-01-17T22:58:14.327Z,97674.87
2023-01-17T23:00:49.625Z,97671.39
2023-01-17T23:03:20.575Z,97673.24
2023-01-17T23:06:12.432Z,97671.70
2023-01-17T23:09:06.306Z,97666.28
2023-01-17T23:11:57.409Z,97666.52
2023-01-17T23:14:53.090Z,97663.22
2023-01-17T23:17:42.984Z,97661.52
2023-01-17T23:20:26.502Z,97663.66
2023-01-17T23:23:17.165Z,97664.00
2023-01-17T23:25:47.969Z,97659.38
2023-01-17T23:28:20.958Z,97657.16
2023-01-17T23:31:12.836Z,97658.08
2023-01-17T23:34:03.590Z,97662.77
2023-01-17T23:36:54.212Z,97663.02
2023-01-17T23:39:25.519Z,97666.54
2023-01-17T23:42:16.673Z,97668.86
2023-01-17T23:44:47.296Z,97667.05
2023-01-17T23:47:38.277Z,97668.34
2023-01-17T23:50:13.858Z,97663.78
2023-01-17T23:53:07.953Z,97664.66
2023-01-17T23:56:00.154Z,97667.50
2023-01-17T23:58:51.289Z,97673.17
